sensor_id;sensor_type;location;lat;lon;timestamp;P1;durP1;ratioP1;P2;durP2;ratioP2
21901;SDS011;11115;46.038;14.612;2023-02-08T00:01:08;26.97;;;7.23;;
21901;SDS011;11115;46.038;14.612;2023-02-08T00:03:37;20.73;;;6.93;;
21901;SDS011;11115;46.038;14.612;2023-02-08T00:06:05;34.23;;;9.70;;
21901;SDS011;11115;46.038;14.612;2023-02-08T00:08:35;33.23;;;11.63;;
21901;SDS011;11115;46.038;14.612;2023-02-08T00:11:03;32.60;;;8.80;;
21901;SDS011;11115;46.038;14.612;2023-02-08T00:13:32;30.30;;;10.07;;
21901;SDS011;11115;46.038;14.612;2023-02-08T00:16:00;26.33;;;8.90;;
21901;SDS011;11115;46.038;14.612;2023-02-08T00:18:28;32.30;;;9.07;;
21901;SDS011;11115;46.038;14.612;2023-02-08T00:20:56;22.90;;;7.57;;
21901;SDS011;11115;46.038;14.612;2023-02-08T00:23:24;22.40;;;7.00;;
21901;SDS011;11115;46.038;14.612;2023-02-08T00:25:52;14.50;;;6.73;;
21901;SDS011;11115;46.038;14.612;2023-02-08T00:28:20;13.67;;;6.03;;
21901;SDS011;11115;46.038;14.612;2023-02-08T00:30:48;16.70;;;5.63;;
21901;SDS011;11115;46.038;14.612;2023-02-08T00:33:16;10.57;;;5.27;;
21901;SDS011;11115;46.038;14.612;2023-02-08T00:35:43;19.30;;;5.57;;
21901;SDS011;11115;46.038;14.612;2023-02-08T00:38:11;14.50;;;5.50;;
21901;SDS011;11115;46.038;14.612;2023-02-08T00:40:39;17.13;;;5.97;;
21901;SDS011;11115;46.038;14.612;2023-02-08T00:43:07;13.53;;;4.57;;
21901;SDS011;11115;46.038;14.612;2023-02-08T00:45:35;20.37;;;5.10;;
21901;SDS011;11115;46.038;14.612;2023-02-08T00:48:02;18.70;;;5.73;;
21901;SDS011;11115;46.038;14.612;2023-02-08T00:50:30;13.93;;;5.67;;
21901;SDS011;11115;46.038;14.612;2023-02-08T00:52:58;17.83;;;7.60;;
21901;SDS011;11115;46.038;14.612;2023-02-08T00:55:26;27.50;;;7.70;;
21901;SDS011;11115;46.038;14.612;2023-02-08T00:57:54;22.57;;;7.83;;
21901;SDS011;11115;46.038;14.612;2023-02-08T01:00:22;21.20;;;6.80;;
21901;SDS011;11115;46.038;14.612;2023-02-08T01:02:50;12.37;;;5.73;;
21901;SDS011;11115;46.038;14.612;2023-02-08T01:05:17;18.17;;;7.60;;
21901;SDS011;11115;46.038;14.612;2023-02-08T01:07:45;16.30;;;5.83;;
21901;SDS011;11115;46.038;14.612;2023-02-08T01:10:13;7.40;;;5.00;;
21901;SDS011;11115;46.038;14.612;2023-02-08T01:12:41;19.77;;;5.77;;
21901;SDS011;11115;46.038;14.612;2023-02-08T01:15:08;18.37;;;7.13;;
21901;SDS011;11115;46.038;14.612;2023-02-08T01:17:37;15.67;;;5.73;;
21901;SDS011;11115;46.038;14.612;2023-02-08T01:20:05;16.00;;;6.30;;
21901;SDS011;11115;46.038;14.612;2023-02-08T01:22:34;21.57;;;6.27;;
21901;SDS011;11115;46.038;14.612;2023-02-08T01:25:02;21.97;;;7.30;;
21901;SDS011;11115;46.038;14.612;2023-02-08T01:27:30;19.07;;;5.60;;
21901;SDS011;11115;46.038;14.612;2023-02-08T01:29:58;21.80;;;8.67;;
21901;SDS011;11115;46.038;14.612;2023-02-08T01:32:26;16.10;;;6.53;;
21901;SDS011;11115;46.038;14.612;2023-02-08T01:34:54;23.73;;;7.37;;
21901;SDS011;11115;46.038;14.612;2023-02-08T01:37:22;17.63;;;6.43;;
21901;SDS011;11115;46.038;14.612;2023-02-08T01:39:50;16.73;;;6.60;;
21901;SDS011;11115;46.038;14.612;2023-02-08T01:42:19;32.73;;;8.17;;
21901;SDS011;11115;46.038;14.612;2023-02-08T01:47:43;20.97;;;6.87;;
21901;SDS011;11115;46.038;14.612;2023-02-08T01:50:13;18.00;;;6.93;;
21901;SDS011;11115;46.038;14.612;2023-02-08T01:52:44;18.23;;;6.43;;
21901;SDS011;11115;46.038;14.612;2023-02-08T01:55:19;17.00;;;7.10;;
21901;SDS011;11115;46.038;14.612;2023-02-08T01:57:52;20.30;;;7.60;;
21901;SDS011;11115;46.038;14.612;2023-02-08T02:00:23;26.45;;;7.65;;
21901;SDS011;11115;46.038;14.612;2023-02-08T02:02:52;15.67;;;5.67;;
21901;SDS011;11115;46.038;14.612;2023-02-08T02:05:25;17.47;;;7.60;;
21901;SDS011;11115;46.038;14.612;2023-02-08T02:07:58;21.87;;;8.83;;
21901;SDS011;11115;46.038;14.612;2023-02-08T02:10:30;20.30;;;6.27;;
21901;SDS011;11115;46.038;14.612;2023-02-08T02:13:05;15.50;;;6.63;;
21901;SDS011;11115;46.038;14.612;2023-02-08T02:15:35;18.13;;;7.00;;
21901;SDS011;11115;46.038;14.612;2023-02-08T02:18:04;21.80;;;7.37;;
21901;SDS011;11115;46.038;14.612;2023-02-08T02:28:54;16.03;;;6.83;;
21901;SDS011;11115;46.038;14.612;2023-02-08T02:34:31;15.00;;;6.27;;
21901;SDS011;11115;46.038;14.612;2023-02-08T02:45:22;18.43;;;7.00;;
21901;SDS011;11115;46.038;14.612;2023-02-08T02:48:46;16.97;;;7.43;;
21901;SDS011;11115;46.038;14.612;2023-02-08T02:50:58;23.53;;;7.57;;
21901;SDS011;11115;46.038;14.612;2023-02-08T02:53:52;18.53;;;8.00;;
21901;SDS011;11115;46.038;14.612;2023-02-08T02:56:29;13.73;;;5.43;;
21901;SDS011;11115;46.038;14.612;2023-02-08T02:59:04;18.50;;;6.67;;
21901;SDS011;11115;46.038;14.612;2023-02-08T03:01:33;17.08;;;5.68;;
21901;SDS011;11115;46.038;14.612;2023-02-08T03:04:11;22.80;;;7.47;;
21901;SDS011;11115;46.038;14.612;2023-02-08T03:20:42;32.53;;;7.97;;
21901;SDS011;11115;46.038;14.612;2023-02-08T03:23:18;23.63;;;6.53;;
21901;SDS011;11115;46.038;14.612;2023-02-08T03:25:50;13.77;;;6.33;;
21901;SDS011;11115;46.038;14.612;2023-02-08T03:28:25;16.73;;;5.97;;
21901;SDS011;11115;46.038;14.612;2023-02-08T03:31:00;23.80;;;8.10;;
21901;SDS011;11115;46.038;14.612;2023-02-08T03:36:30;16.33;;;5.97;;
21901;SDS011;11115;46.038;14.612;2023-02-08T03:39:03;23.27;;;7.60;;
21901;SDS011;11115;46.038;14.612;2023-02-08T03:41:35;12.43;;;4.20;;
21901;SDS011;11115;46.038;14.612;2023-02-08T03:44:08;23.50;;;6.60;;
21901;SDS011;11115;46.038;14.612;2023-02-08T03:46:40;17.93;;;6.60;;
21901;SDS011;11115;46.038;14.612;2023-02-08T03:49:14;24.70;;;6.10;;
21901;SDS011;11115;46.038;14.612;2023-02-08T03:51:46;17.17;;;6.20;;
21901;SDS011;11115;46.038;14.612;2023-02-08T03:54:25;13.50;;;5.20;;
21901;SDS011;11115;46.038;14.612;2023-02-08T03:56:58;16.07;;;7.10;;
21901;SDS011;11115;46.038;14.612;2023-02-08T03:59:31;25.33;;;8.47;;
21901;SDS011;11115;46.038;14.612;2023-02-08T04:02:05;47.47;;;11.77;;
21901;SDS011;11115;46.038;14.612;2023-02-08T04:04:41;41.23;;;12.57;;
21901;SDS011;11115;46.038;14.612;2023-02-08T04:07:12;30.83;;;10.70;;
21901;SDS011;11115;46.038;14.612;2023-02-08T04:09:40;30.87;;;8.83;;
21901;SDS011;11115;46.038;14.612;2023-02-08T04:12:08;33.30;;;11.67;;
21901;SDS011;11115;46.038;14.612;2023-02-08T04:14:36;28.23;;;9.67;;
21901;SDS011;11115;46.038;14.612;2023-02-08T04:17:03;30.67;;;8.77;;
21901;SDS011;11115;46.038;14.612;2023-02-08T04:19:31;24.50;;;8.77;;
21901;SDS011;11115;46.038;14.612;2023-02-08T04:21:59;34.03;;;9.10;;
21901;SDS011;11115;46.038;14.612;2023-02-08T04:24:27;30.67;;;9.53;;
21901;SDS011;11115;46.038;14.612;2023-02-08T04:26:54;17.33;;;6.00;;
21901;SDS011;11115;46.038;14.612;2023-02-08T04:29:22;23.73;;;9.13;;
21901;SDS011;11115;46.038;14.612;2023-02-08T04:31:50;23.07;;;9.07;;
21901;SDS011;11115;46.038;14.612;2023-02-08T04:34:18;16.70;;;7.37;;
21901;SDS011;11115;46.038;14.612;2023-02-08T04:36:46;14.53;;;7.10;;
21901;SDS011;11115;46.038;14.612;2023-02-08T04:39:14;16.10;;;7.33;;
21901;SDS011;11115;46.038;14.612;2023-02-08T04:41:41;26.03;;;7.43;;
21901;SDS011;11115;46.038;14.612;2023-02-08T04:44:09;12.70;;;5.77;;
21901;SDS011;11115;46.038;14.612;2023-02-08T04:46:37;23.90;;;6.17;;
21901;SDS011;11115;46.038;14.612;2023-02-08T04:49:04;13.63;;;6.40;;
21901;SDS011;11115;46.038;14.612;2023-02-08T04:51:32;22.37;;;7.60;;
21901;SDS011;11115;46.038;14.612;2023-02-08T04:54:00;17.03;;;7.03;;
21901;SDS011;11115;46.038;14.612;2023-02-08T04:56:27;14.10;;;6.43;;
21901;SDS011;11115;46.038;14.612;2023-02-08T04:58:55;11.33;;;6.57;;
21901;SDS011;11115;46.038;14.612;2023-02-08T05:01:23;21.33;;;6.63;;
21901;SDS011;11115;46.038;14.612;2023-02-08T05:03:51;22.00;;;7.47;;
21901;SDS011;11115;46.038;14.612;2023-02-08T05:06:19;24.60;;;7.00;;
21901;SDS011;11115;46.038;14.612;2023-02-08T05:08:46;24.83;;;8.97;;
21901;SDS011;11115;46.038;14.612;2023-02-08T05:11:21;57.53;;;11.87;;
21901;SDS011;11115;46.038;14.612;2023-02-08T05:13:50;37.90;;;9.40;;
21901;SDS011;11115;46.038;14.612;2023-02-08T05:16:18;30.57;;;7.40;;
21901;SDS011;11115;46.038;14.612;2023-02-08T05:18:46;21.53;;;7.70;;
21901;SDS011;11115;46.038;14.612;2023-02-08T05:21:14;25.17;;;7.90;;
21901;SDS011;11115;46.038;14.612;2023-02-08T05:23:42;16.33;;;6.93;;
21901;SDS011;11115;46.038;14.612;2023-02-08T05:26:12;22.73;;;7.93;;
21901;SDS011;11115;46.038;14.612;2023-02-08T05:28:40;17.80;;;7.63;;
21901;SDS011;11115;46.038;14.612;2023-02-08T05:31:09;13.83;;;5.23;;
21901;SDS011;11115;46.038;14.612;2023-02-08T05:33:41;17.57;;;6.63;;
21901;SDS011;11115;46.038;14.612;2023-02-08T05:36:09;15.97;;;6.50;;
21901;SDS011;11115;46.038;14.612;2023-02-08T05:38:37;12.77;;;4.87;;
21901;SDS011;11115;46.038;14.612;2023-02-08T05:41:04;14.47;;;7.00;;
21901;SDS011;11115;46.038;14.612;2023-02-08T05:43:32;13.67;;;6.53;;
21901;SDS011;11115;46.038;14.612;2023-02-08T05:46:00;21.50;;;7.30;;
21901;SDS011;11115;46.038;14.612;2023-02-08T05:48:29;14.97;;;7.40;;
21901;SDS011;11115;46.038;14.612;2023-02-08T05:50:57;13.33;;;5.93;;
21901;SDS011;11115;46.038;14.612;2023-02-08T05:53:26;30.73;;;7.60;;
21901;SDS011;11115;46.038;14.612;2023-02-08T05:55:55;22.07;;;7.83;;
21901;SDS011;11115;46.038;14.612;2023-02-08T05:58:24;17.07;;;7.70;;
21901;SDS011;11115;46.038;14.612;2023-02-08T06:00:52;15.50;;;6.43;;
21901;SDS011;11115;46.038;14.612;2023-02-08T06:03:20;23.07;;;8.03;;
21901;SDS011;11115;46.038;14.612;2023-02-08T06:05:48;22.57;;;6.80;;
21901;SDS011;11115;46.038;14.612;2023-02-08T06:08:16;23.23;;;6.47;;
21901;SDS011;11115;46.038;14.612;2023-02-08T06:10:43;24.63;;;6.57;;
21901;SDS011;11115;46.038;14.612;2023-02-08T06:13:15;18.05;;;6.72;;
21901;SDS011;11115;46.038;14.612;2023-02-08T06:15:42;23.50;;;9.13;;
21901;SDS011;11115;46.038;14.612;2023-02-08T06:18:10;18.13;;;7.83;;
21901;SDS011;11115;46.038;14.612;2023-02-08T06:20:38;30.63;;;7.97;;
21901;SDS011;11115;46.038;14.612;2023-02-08T06:23:06;17.33;;;6.63;;
21901;SDS011;11115;46.038;14.612;2023-02-08T06:25:34;33.23;;;10.60;;
21901;SDS011;11115;46.038;14.612;2023-02-08T06:28:02;33.23;;;10.07;;
21901;SDS011;11115;46.038;14.612;2023-02-08T06:30:30;21.30;;;6.77;;
21901;SDS011;11115;46.038;14.612;2023-02-08T06:32:57;27.40;;;9.87;;
21901;SDS011;11115;46.038;14.612;2023-02-08T06:35:25;24.40;;;8.73;;
21901;SDS011;11115;46.038;14.612;2023-02-08T06:37:53;17.47;;;7.10;;
21901;SDS011;11115;46.038;14.612;2023-02-08T06:40:21;17.07;;;6.93;;
21901;SDS011;11115;46.038;14.612;2023-02-08T06:42:49;18.60;;;8.40;;
21901;SDS011;11115;46.038;14.612;2023-02-08T06:45:17;16.87;;;6.83;;
21901;SDS011;11115;46.038;14.612;2023-02-08T06:47:45;20.90;;;6.00;;
21901;SDS011;11115;46.038;14.612;2023-02-08T06:50:12;17.30;;;7.13;;
21901;SDS011;11115;46.038;14.612;2023-02-08T06:52:41;13.07;;;5.73;;
21901;SDS011;11115;46.038;14.612;2023-02-08T06:55:08;14.30;;;6.03;;
21901;SDS011;11115;46.038;14.612;2023-02-08T06:57:36;19.30;;;8.03;;
21901;SDS011;11115;46.038;14.612;2023-02-08T07:00:04;21.87;;;7.17;;
21901;SDS011;11115;46.038;14.612;2023-02-08T07:02:32;20.23;;;6.27;;
21901;SDS011;11115;46.038;14.612;2023-02-08T07:05:00;13.40;;;5.43;;
21901;SDS011;11115;46.038;14.612;2023-02-08T07:07:28;15.37;;;6.53;;
21901;SDS011;11115;46.038;14.612;2023-02-08T07:09:55;19.17;;;6.23;;
21901;SDS011;11115;46.038;14.612;2023-02-08T07:12:23;11.70;;;6.50;;
21901;SDS011;11115;46.038;14.612;2023-02-08T07:14:51;15.23;;;7.37;;
21901;SDS011;11115;46.038;14.612;2023-02-08T07:17:18;10.93;;;5.80;;
21901;SDS011;11115;46.038;14.612;2023-02-08T07:19:46;9.00;;;4.23;;
21901;SDS011;11115;46.038;14.612;2023-02-08T07:22:14;18.53;;;7.00;;
21901;SDS011;11115;46.038;14.612;2023-02-08T07:24:42;24.87;;;5.97;;
21901;SDS011;11115;46.038;14.612;2023-02-08T07:27:10;10.83;;;5.43;;
21901;SDS011;11115;46.038;14.612;2023-02-08T07:29:39;11.07;;;4.57;;
21901;SDS011;11115;46.038;14.612;2023-02-08T07:32:07;19.00;;;7.07;;
21901;SDS011;11115;46.038;14.612;2023-02-08T07:34:35;13.87;;;6.00;;
21901;SDS011;11115;46.038;14.612;2023-02-08T07:37:06;26.90;;;8.67;;
21901;SDS011;11115;46.038;14.612;2023-02-08T07:39:34;20.70;;;7.93;;
21901;SDS011;11115;46.038;14.612;2023-02-08T07:42:02;15.47;;;6.63;;
21901;SDS011;11115;46.038;14.612;2023-02-08T07:44:39;29.00;;;8.83;;
21901;SDS011;11115;46.038;14.612;2023-02-08T07:47:06;25.97;;;9.40;;
21901;SDS011;11115;46.038;14.612;2023-02-08T07:49:34;18.63;;;6.80;;
21901;SDS011;11115;46.038;14.612;2023-02-08T07:52:02;26.50;;;8.97;;
21901;SDS011;11115;46.038;14.612;2023-02-08T07:54:30;11.90;;;5.63;;
21901;SDS011;11115;46.038;14.612;2023-02-08T07:56:57;16.77;;;7.53;;
21901;SDS011;11115;46.038;14.612;2023-02-08T07:59:28;15.47;;;6.57;;
21901;SDS011;11115;46.038;14.612;2023-02-08T08:01:56;18.00;;;6.57;;
21901;SDS011;11115;46.038;14.612;2023-02-08T08:04:24;12.73;;;5.87;;
21901;SDS011;11115;46.038;14.612;2023-02-08T08:06:51;21.10;;;6.90;;
21901;SDS011;11115;46.038;14.612;2023-02-08T08:09:19;15.40;;;6.53;;
21901;SDS011;11115;46.038;14.612;2023-02-08T08:11:49;7.00;;;6.03;;
21901;SDS011;11115;46.038;14.612;2023-02-08T08:14:17;4.03;;;3.70;;
21901;SDS011;11115;46.038;14.612;2023-02-08T08:16:45;9.30;;;4.93;;
21901;SDS011;11115;46.038;14.612;2023-02-08T08:19:12;8.77;;;5.00;;
21901;SDS011;11115;46.038;14.612;2023-02-08T08:21:40;8.40;;;4.53;;
21901;SDS011;11115;46.038;14.612;2023-02-08T08:24:08;8.77;;;5.83;;
21901;SDS011;11115;46.038;14.612;2023-02-08T08:26:36;11.43;;;5.07;;
21901;SDS011;11115;46.038;14.612;2023-02-08T08:29:04;6.10;;;5.17;;
21901;SDS011;11115;46.038;14.612;2023-02-08T08:31:32;5.30;;;3.60;;
21901;SDS011;11115;46.038;14.612;2023-02-08T08:34:00;13.57;;;6.67;;
21901;SDS011;11115;46.038;14.612;2023-02-08T08:36:28;8.87;;;5.67;;
21901;SDS011;11115;46.038;14.612;2023-02-08T08:38:56;22.43;;;4.60;;
21901;SDS011;11115;46.038;14.612;2023-02-08T08:41:24;16.63;;;5.60;;
21901;SDS011;11115;46.038;14.612;2023-02-08T08:43:54;24.27;;;5.83;;
21901;SDS011;11115;46.038;14.612;2023-02-08T08:46:22;17.67;;;8.03;;
21901;SDS011;11115;46.038;14.612;2023-02-08T08:48:50;12.20;;;4.67;;
21901;SDS011;11115;46.038;14.612;2023-02-08T08:51:17;38.30;;;7.13;;
21901;SDS011;11115;46.038;14.612;2023-02-08T08:53:45;9.20;;;5.47;;
21901;SDS011;11115;46.038;14.612;2023-02-08T08:56:13;6.77;;;5.23;;
21901;SDS011;11115;46.038;14.612;2023-02-08T08:58:41;12.13;;;6.27;;
21901;SDS011;11115;46.038;14.612;2023-02-08T09:01:09;19.10;;;5.87;;
21901;SDS011;11115;46.038;14.612;2023-02-08T09:03:39;19.57;;;6.30;;
21901;SDS011;11115;46.038;14.612;2023-02-08T09:06:07;12.90;;;4.93;;
21901;SDS011;11115;46.038;14.612;2023-02-08T09:08:34;17.60;;;4.60;;
21901;SDS011;11115;46.038;14.612;2023-02-08T09:11:03;10.00;;;5.53;;
21901;SDS011;11115;46.038;14.612;2023-02-08T09:13:38;12.77;;;4.47;;
21901;SDS011;11115;46.038;14.612;2023-02-08T09:16:11;8.47;;;4.40;;
21901;SDS011;11115;46.038;14.612;2023-02-08T09:18:41;8.27;;;4.73;;
21901;SDS011;11115;46.038;14.612;2023-02-08T09:21:11;4.30;;;2.73;;
21901;SDS011;11115;46.038;14.612;2023-02-08T09:23:40;12.50;;;5.47;;
21901;SDS011;11115;46.038;14.612;2023-02-08T09:26:09;14.23;;;5.83;;
21901;SDS011;11115;46.038;14.612;2023-02-08T09:28:38;7.33;;;3.90;;
21901;SDS011;11115;46.038;14.612;2023-02-08T09:31:09;15.20;;;7.57;;
21901;SDS011;11115;46.038;14.612;2023-02-08T09:33:46;18.33;;;6.30;;
21901;SDS011;11115;46.038;14.612;2023-02-08T09:36:15;13.17;;;4.73;;
21901;SDS011;11115;46.038;14.612;2023-02-08T09:38:44;12.03;;;6.27;;
21901;SDS011;11115;46.038;14.612;2023-02-08T09:52:38;12.37;;;5.93;;
21901;SDS011;11115;46.038;14.612;2023-02-08T09:57:57;12.87;;;5.87;;
21901;SDS011;11115;46.038;14.612;2023-02-08T10:00:34;11.13;;;6.97;;
21901;SDS011;11115;46.038;14.612;2023-02-08T10:03:05;15.87;;;6.67;;
21901;SDS011;11115;46.038;14.612;2023-02-08T10:05:48;10.97;;;5.43;;
21901;SDS011;11115;46.038;14.612;2023-02-08T10:08:15;12.00;;;5.37;;
21901;SDS011;11115;46.038;14.612;2023-02-08T10:19:10;9.63;;;4.87;;
21901;SDS011;11115;46.038;14.612;2023-02-08T10:27:15;36.97;;;4.63;;
21901;SDS011;11115;46.038;14.612;2023-02-08T10:29:50;16.13;;;5.77;;
21901;SDS011;11115;46.038;14.612;2023-02-08T10:32:57;8.27;;;3.90;;
21901;SDS011;11115;46.038;14.612;2023-02-08T10:35:29;11.73;;;6.13;;
21901;SDS011;11115;46.038;14.612;2023-02-08T10:38:10;9.87;;;5.33;;
21901;SDS011;11115;46.038;14.612;2023-02-08T10:41:00;16.60;;;4.57;;
21901;SDS011;11115;46.038;14.612;2023-02-08T10:43:33;6.57;;;4.03;;
21901;SDS011;11115;46.038;14.612;2023-02-08T10:46:23;9.37;;;3.57;;
21901;SDS011;11115;46.038;14.612;2023-02-08T10:51:46;13.67;;;4.50;;
21901;SDS011;11115;46.038;14.612;2023-02-08T10:54:14;6.90;;;2.60;;
21901;SDS011;11115;46.038;14.612;2023-02-08T10:56:51;5.67;;;3.40;;
21901;SDS011;11115;46.038;14.612;2023-02-08T10:59:24;10.13;;;3.60;;
21901;SDS011;11115;46.038;14.612;2023-02-08T11:01:52;3.87;;;2.67;;
21901;SDS011;11115;46.038;14.612;2023-02-08T11:04:22;5.50;;;2.23;;
21901;SDS011;11115;46.038;14.612;2023-02-08T11:06:50;5.70;;;3.17;;
21901;SDS011;11115;46.038;14.612;2023-02-08T11:09:24;5.43;;;1.70;;
21901;SDS011;11115;46.038;14.612;2023-02-08T11:11:59;4.33;;;2.60;;
21901;SDS011;11115;46.038;14.612;2023-02-08T11:14:28;6.07;;;4.10;;
21901;SDS011;11115;46.038;14.612;2023-02-08T11:17:28;6.77;;;3.73;;
21901;SDS011;11115;46.038;14.612;2023-02-08T11:19:59;6.80;;;2.73;;
21901;SDS011;11115;46.038;14.612;2023-02-08T11:22:27;10.80;;;3.23;;
21901;SDS011;11115;46.038;14.612;2023-02-08T11:24:58;4.20;;;2.80;;
21901;SDS011;11115;46.038;14.612;2023-02-08T11:32:35;3.63;;;2.03;;
21901;SDS011;11115;46.038;14.612;2023-02-08T11:37:40;4.13;;;2.70;;
21901;SDS011;11115;46.038;14.612;2023-02-08T11:40:18;4.53;;;2.40;;
21901;SDS011;11115;46.038;14.612;2023-02-08T11:42:49;6.40;;;2.27;;
21901;SDS011;11115;46.038;14.612;2023-02-08T11:45:40;7.90;;;3.27;;
21901;SDS011;11115;46.038;14.612;2023-02-08T11:48:13;5.90;;;2.20;;
21901;SDS011;11115;46.038;14.612;2023-02-08T11:50:52;6.25;;;2.17;;
21901;SDS011;11115;46.038;14.612;2023-02-08T11:53:35;4.40;;;2.07;;
21901;SDS011;11115;46.038;14.612;2023-02-08T11:56:16;11.53;;;3.37;;
21901;SDS011;11115;46.038;14.612;2023-02-08T12:01:36;9.53;;;1.73;;
21901;SDS011;11115;46.038;14.612;2023-02-08T12:04:07;1.33;;;1.23;;
21901;SDS011;11115;46.038;14.612;2023-02-08T12:11:52;2.00;;;1.80;;
21901;SDS011;11115;46.038;14.612;2023-02-08T12:19:57;2.50;;;2.03;;
21901;SDS011;11115;46.038;14.612;2023-02-08T12:22:29;4.70;;;1.60;;
21901;SDS011;11115;46.038;14.612;2023-02-08T12:25:18;15.63;;;2.77;;
21901;SDS011;11115;46.038;14.612;2023-02-08T12:31:03;4.40;;;1.10;;
21901;SDS011;11115;46.038;14.612;2023-02-08T12:53:57;2.00;;;1.80;;
21901;SDS011;11115;46.038;14.612;2023-02-08T12:56:47;1.40;;;1.00;;
21901;SDS011;11115;46.038;14.612;2023-02-08T12:59:29;5.03;;;2.33;;
21901;SDS011;11115;46.038;14.612;2023-02-08T13:02:10;6.60;;;1.73;;
21901;SDS011;11115;46.038;14.612;2023-02-08T13:04:45;1.43;;;1.33;;
21901;SDS011;11115;46.038;14.612;2023-02-08T13:10:03;5.37;;;1.60;;
21901;SDS011;11115;46.038;14.612;2023-02-08T13:12:40;7.97;;;2.37;;
21901;SDS011;11115;46.038;14.612;2023-02-08T13:15:14;2.00;;;1.63;;
21901;SDS011;11115;46.038;14.612;2023-02-08T13:18:18;1.57;;;1.47;;
21901;SDS011;11115;46.038;14.612;2023-02-08T13:23:35;1.77;;;1.67;;
21901;SDS011;11115;46.038;14.612;2023-02-08T13:26:19;1.60;;;1.33;;
21901;SDS011;11115;46.038;14.612;2023-02-08T13:28:53;2.57;;;2.00;;
21901;SDS011;11115;46.038;14.612;2023-02-08T13:31:30;7.40;;;3.20;;
21901;SDS011;11115;46.038;14.612;2023-02-08T13:34:06;1.53;;;1.43;;
21901;SDS011;11115;46.038;14.612;2023-02-08T13:36:41;8.40;;;2.80;;
21901;SDS011;11115;46.038;14.612;2023-02-08T13:42:07;8.40;;;1.50;;
21901;SDS011;11115;46.038;14.612;2023-02-08T13:44:48;10.67;;;2.00;;
21901;SDS011;11115;46.038;14.612;2023-02-08T13:47:29;6.13;;;3.00;;
21901;SDS011;11115;46.038;14.612;2023-02-08T13:50:03;4.50;;;2.37;;
21901;SDS011;11115;46.038;14.612;2023-02-08T13:58:01;2.13;;;1.63;;
21901;SDS011;11115;46.038;14.612;2023-02-08T14:03:25;4.10;;;2.27;;
21901;SDS011;11115;46.038;14.612;2023-02-08T14:05:56;2.47;;;1.50;;
21901;SDS011;11115;46.038;14.612;2023-02-08T14:16:43;1.77;;;1.67;;
21901;SDS011;11115;46.038;14.612;2023-02-08T14:21:44;2.97;;;1.30;;
21901;SDS011;11115;46.038;14.612;2023-02-08T14:24:33;1.97;;;1.23;;
21901;SDS011;11115;46.038;14.612;2023-02-08T14:27:25;2.43;;;2.23;;
21901;SDS011;11115;46.038;14.612;2023-02-08T14:32:46;2.97;;;1.43;;
21901;SDS011;11115;46.038;14.612;2023-02-08T14:35:17;3.10;;;1.67;;
21901;SDS011;11115;46.038;14.612;2023-02-08T14:40:51;2.73;;;2.23;;
21901;SDS011;11115;46.038;14.612;2023-02-08T14:43:34;9.23;;;1.27;;
21901;SDS011;11115;46.038;14.612;2023-02-08T14:49:10;2.47;;;1.73;;
21901;SDS011;11115;46.038;14.612;2023-02-08T14:51:45;1.67;;;1.00;;
21901;SDS011;11115;46.038;14.612;2023-02-08T14:54:24;3.17;;;1.57;;
21901;SDS011;11115;46.038;14.612;2023-02-08T14:56:59;3.50;;;1.70;;
21901;SDS011;11115;46.038;14.612;2023-02-08T14:59:30;5.05;;;2.35;;
21901;SDS011;11115;46.038;14.612;2023-02-08T15:02:01;8.97;;;1.63;;
21901;SDS011;11115;46.038;14.612;2023-02-08T15:04:41;2.23;;;1.67;;
21901;SDS011;11115;46.038;14.612;2023-02-08T15:10:00;2.47;;;2.00;;
21901;SDS011;11115;46.038;14.612;2023-02-08T15:12:31;1.65;;;1.55;;
21901;SDS011;11115;46.038;14.612;2023-02-08T15:15:01;3.60;;;2.23;;
21901;SDS011;11115;46.038;14.612;2023-02-08T15:17:34;1.97;;;1.77;;
21901;SDS011;11115;46.038;14.612;2023-02-08T15:20:07;3.30;;;2.17;;
21901;SDS011;11115;46.038;14.612;2023-02-08T15:23:14;3.80;;;1.60;;
21901;SDS011;11115;46.038;14.612;2023-02-08T15:26:05;4.53;;;1.77;;
21901;SDS011;11115;46.038;14.612;2023-02-08T15:28:46;4.80;;;2.77;;
21901;SDS011;11115;46.038;14.612;2023-02-08T15:31:18;4.90;;;1.33;;
21901;SDS011;11115;46.038;14.612;2023-02-08T15:33:50;3.13;;;1.10;;
21901;SDS011;11115;46.038;14.612;2023-02-08T15:36:21;4.87;;;0.97;;
21901;SDS011;11115;46.038;14.612;2023-02-08T15:39:09;7.10;;;2.60;;
21901;SDS011;11115;46.038;14.612;2023-02-08T15:41:47;7.47;;;2.13;;
21901;SDS011;11115;46.038;14.612;2023-02-08T15:46:51;2.23;;;1.87;;
21901;SDS011;11115;46.038;14.612;2023-02-08T15:49:24;2.30;;;1.53;;
21901;SDS011;11115;46.038;14.612;2023-02-08T15:51:56;1.40;;;1.27;;
21901;SDS011;11115;46.038;14.612;2023-02-08T15:54:26;12.50;;;1.33;;
21901;SDS011;11115;46.038;14.612;2023-02-08T15:56:55;2.17;;;1.40;;
21901;SDS011;11115;46.038;14.612;2023-02-08T15:59:31;4.10;;;1.87;;
21901;SDS011;11115;46.038;14.612;2023-02-08T16:04:50;1.23;;;1.13;;
21901;SDS011;11115;46.038;14.612;2023-02-08T16:09:52;10.13;;;1.53;;
21901;SDS011;11115;46.038;14.612;2023-02-08T16:12:22;2.10;;;1.30;;
21901;SDS011;11115;46.038;14.612;2023-02-08T16:14:52;10.00;;;2.00;;
21901;SDS011;11115;46.038;14.612;2023-02-08T16:17:56;2.03;;;1.90;;
21901;SDS011;11115;46.038;14.612;2023-02-08T16:25:48;3.70;;;2.20;;
21901;SDS011;11115;46.038;14.612;2023-02-08T16:28:24;14.53;;;3.30;;
21901;SDS011;11115;46.038;14.612;2023-02-08T16:30:55;4.03;;;2.17;;
21901;SDS011;11115;46.038;14.612;2023-02-08T16:33:26;4.63;;;2.10;;
21901;SDS011;11115;46.038;14.612;2023-02-08T16:35:55;3.30;;;0.90;;
21901;SDS011;11115;46.038;14.612;2023-02-08T16:38:28;2.53;;;1.73;;
21901;SDS011;11115;46.038;14.612;2023-02-08T16:40:57;3.80;;;2.80;;
21901;SDS011;11115;46.038;14.612;2023-02-08T16:43:38;6.47;;;3.30;;
21901;SDS011;11115;46.038;14.612;2023-02-08T16:48:38;3.30;;;1.90;;
21901;SDS011;11115;46.038;14.612;2023-02-08T16:51:14;3.50;;;1.90;;
21901;SDS011;11115;46.038;14.612;2023-02-08T16:53:47;8.77;;;1.07;;
21901;SDS011;11115;46.038;14.612;2023-02-08T16:56:17;2.60;;;2.40;;
21901;SDS011;11115;46.038;14.612;2023-02-08T16:58:45;5.20;;;1.33;;
21901;SDS011;11115;46.038;14.612;2023-02-08T17:01:13;2.03;;;1.93;;
21901;SDS011;11115;46.038;14.612;2023-02-08T17:03:41;2.47;;;1.60;;
21901;SDS011;11115;46.038;14.612;2023-02-08T17:06:30;2.87;;;1.83;;
21901;SDS011;11115;46.038;14.612;2023-02-08T17:08:59;5.10;;;2.00;;
21901;SDS011;11115;46.038;14.612;2023-02-08T17:11:28;1.87;;;1.70;;
21901;SDS011;11115;46.038;14.612;2023-02-08T17:13:56;4.70;;;1.20;;
21901;SDS011;11115;46.038;14.612;2023-02-08T17:16:27;7.40;;;2.47;;
21901;SDS011;11115;46.038;14.612;2023-02-08T17:18:57;2.53;;;1.40;;
21901;SDS011;11115;46.038;14.612;2023-02-08T17:21:27;2.70;;;1.63;;
21901;SDS011;11115;46.038;14.612;2023-02-08T17:23:55;7.37;;;2.30;;
21901;SDS011;11115;46.038;14.612;2023-02-08T17:26:41;5.97;;;2.33;;
21901;SDS011;11115;46.038;14.612;2023-02-08T17:29:10;1.30;;;1.20;;
21901;SDS011;11115;46.038;14.612;2023-02-08T17:31:39;2.77;;;1.50;;
21901;SDS011;11115;46.038;14.612;2023-02-08T17:34:07;3.03;;;1.80;;
21901;SDS011;11115;46.038;14.612;2023-02-08T17:36:35;2.73;;;1.80;;
21901;SDS011;11115;46.038;14.612;2023-02-08T17:39:04;1.43;;;1.30;;
21901;SDS011;11115;46.038;14.612;2023-02-08T17:41:32;3.40;;;1.97;;